Home > Products > Valid Products > MTR

000
SAUS44 KSHV 161559
MTRAQV
METAR KAQV 161556Z AUTO VRB06KT 10SM CLR 12/M01 A3023 RMK AO2 SLP237
T01221006





000
SAUS44 KSHV 161556
MTRPOE
METAR KPOE 161555Z AUTO 16005G16KT 10SM CLR 12/M01 A3024 RMK AO2
SLP245 T01221011





000
SAUS44 KSHV 161555
MTRBKB
METAR KBKB 161554Z AUTO VRB04KT 10SM CLR 12/M02 A3022 RMK AO2 SLP262
T01221017





000
SAUS44 KSHV 161457
MTRAQV
METAR KAQV 161456Z AUTO 16005KT 10SM CLR 11/01 A3022 RMK AO2 SLP234
T01060006 51004





000
SAUS44 KSHV 161457
MTRPOE
METAR KPOE 161455Z AUTO 12014G21KT 10SM CLR 11/M01 A3022 RMK AO2
SLP238 T01061006 57002





000
SAUS44 KSHV 161455
MTRBKB
METAR KBKB 161454Z AUTO VRB04KT 10SM CLR 11/M01 A3022 RMK AO2 SLP262
T01111011 52002





000
SAUS44 KSHV 161357
MTRAQV
METAR KAQV 161356Z AUTO VRB05KT 10SM CLR 08/02 A3021 RMK AO2 SLP233
T00830022





000
SAUS44 KSHV 161356
MTRPOE
METAR KPOE 161355Z AUTO 12010KT 10SM CLR 08/01 A3023 RMK AO2 SLP240
T00780006





000
SAUS44 KSHV 161355
MTRBKB
METAR KBKB 161354Z AUTO VRB05KT 10SM CLR 09/00 A3021 RMK AO2 SLP261
T00940000





000
SAUS44 KSHV 161257
MTRAQV
METAR KAQV 161256Z AUTO VRB03KT 10SM CLR 05/02 A3021 RMK AO2 SLP233
T00500017





000
SAUS44 KSHV 161256
MTRPOE
METAR KPOE 161255Z AUTO 12005KT 10SM CLR 05/02 A3022 RMK AO2 SLP239
T00500017





000
SAUS44 KSHV 161255
MTRBKB
METAR KBKB 161254Z AUTO 11003KT 10SM CLR 06/02 A3021 RMK AO2 SLP261
T00560022





000
SAUS44 KSHV 161157
MTRAQV
METAR KAQV 161156Z AUTO 00000KT 6SM BR CLR 02/01 A3021 RMK AO2
SLP230 T00170011 10061 20017 53015





000
SAUS44 KSHV 161156
MTRPOE
METAR KPOE 161155Z AUTO 00000KT 10SM CLR 02/01 A3023 RMK AO2 SLP240
T00170011 10067 20017 53018





000
SAUS44 KSHV 161155
MTRBKB
METAR KBKB 161154Z AUTO 00000KT 10SM CLR 03/01 A3021 RMK AO2 SLP260
T00280006 10061 20028 53017





000
SAUS44 KSHV 161058
MTRAQV
METAR KAQV 161056Z AUTO 00000KT 10SM CLR 03/02 A3019 RMK AO2 SLP224
T00280017





000
SAUS44 KSHV 161056
MTRPOE
METAR KPOE 161055Z AUTO 00000KT 10SM CLR 03/01 A3020 RMK AO2 SLP230
T00280011





000
SAUS44 KSHV 161055
MTRBKB
METAR KBKB 161054Z AUTO 00000KT 10SM CLR 03/01 A3018 RMK AO2 SLP252
T00330011





000
SAUS44 KSHV 160958
MTRAQV
METAR KAQV 160956Z AUTO 00000KT 10SM CLR 03/02 A3016 RMK AO2 SLP216
T00330022





000
SAUS44 KSHV 160956
MTRPOE
METAR KPOE 160955Z AUTO 09004KT 10SM CLR 04/01 A3018 RMK AO2 SLP223
T00440011





000
SAUS44 KSHV 160955
MTRBKB
METAR KBKB 160954Z AUTO 00000KT 10SM CLR 04/02 A3016 RMK AO2 SLP242
T00390017





000
SAUS44 KSHV 160857
MTRAQV
METAR KAQV 160856Z AUTO 00000KT 10SM CLR 04/02 A3016 RMK AO2 SLP215
T00390022 56005





000
SAUS44 KSHV 160856
MTRPOE
METAR KPOE 160855Z AUTO 09004KT 10SM CLR 04/01 A3017 RMK AO2 SLP221
T00440011 56004





000
SAUS44 KSHV 160855
MTRBKB
METAR KBKB 160854Z AUTO 00000KT 10SM CLR 04/02 A3016 RMK AO2 SLP241
T00390017 56005





000
SAUS44 KSHV 160757
MTRAQV
METAR KAQV 160756Z AUTO 00000KT 10SM CLR 04/03 A3016 RMK AO2 SLP216
T00390028





000
SAUS44 KSHV 160756
MTRPOE
METAR KPOE 160755Z AUTO 09004KT 10SM CLR 05/02 A3017 RMK AO2 SLP222
T00500017





000
SAUS44 KSHV 160755
MTRBKB
METAR KBKB 160754Z AUTO 00000KT 10SM CLR 04/02 A3016 RMK AO2 SLP242
T00440022





000
SAUS44 KSHV 160658
MTRAQV
METAR KAQV 160656Z AUTO 00000KT 10SM CLR 04/03 A3017 RMK AO2 SLP218
T00440033





000
SAUS44 KSHV 160656
MTRPOE
METAR KPOE 160655Z AUTO 08003KT 10SM CLR 06/02 A3018 RMK AO2 SLP224
T00560017





000
SAUS44 KSHV 160655
MTRBKB
METAR KBKB 160654Z AUTO 00000KT 10SM CLR 06/03 A3017 RMK AO2 SLP245
T00560028





000
SAUS44 KSHV 160557
MTRAQV
METAR KAQV 160556Z AUTO 00000KT 10SM CLR 06/03 A3018 RMK AO2 SLP220
T00610028 10144 20061 401560033 56003





000
SAUS44 KSHV 160556
MTRPOE
METAR KPOE 160555Z AUTO 08003KT 10SM CLR 06/02 A3018 RMK AO2 SLP225
T00610017 10139 20056 58001





000
SAUS44 KSHV 160555
MTRBKB
METAR KBKB 160554Z AUTO 00000KT 10SM CLR 06/03 A3017 RMK AO2 SLP247
T00610033 10144 20061 401670044 58000





000
SAUS44 KSHV 160457
MTRAQV
METAR KAQV 160456Z AUTO 00000KT 10SM CLR 06/04 A3018 RMK AO2 SLP222
T00610044





000
SAUS44 KSHV 160456
MTRPOE
METAR KPOE 160455Z AUTO 00000KT 10SM CLR 06/03 A3019 RMK AO2 SLP229
T00560033 401500033





000
SAUS44 KSHV 160455
MTRBKB
METAR KBKB 160454Z AUTO 00000KT 10SM CLR 07/04 A3018 RMK AO2 SLP249
T00670039





000
SAUS44 KSHV 160357
MTRAQV
METAR KAQV 160356Z AUTO 00000KT 10SM CLR 06/05 A3018 RMK AO2 SLP220
T00610050





000
SAUS44 KSHV 160356
MTRPOE
METAR KPOE 160355Z AUTO 03004KT 10SM CLR 07/04 A3018 RMK AO2 SLP225
T00720039





000
SAUS44 KSHV 160355
MTRBKB
METAR KBKB 160354Z AUTO 00000KT 10SM CLR 07/04 A3017 RMK AO2 SLP247
T00720044





000
SAUS44 KSHV 160259
MTRAQV
METAR KAQV 160256Z AUTO 00000KT 10SM CLR 07/06 A3019 RMK AO2 SLP223
T00720056 53007





000
SAUS44 KSHV 160256
MTRPOE
METAR KPOE 160255Z AUTO 01003KT 10SM CLR 07/04 A3019 RMK AO2 SLP227
T00720039 53005





000
SAUS44 KSHV 160255
MTRBKB
METAR KBKB 160254Z AUTO 00000KT 10SM CLR 07/04 A3017 RMK AO2 SLP248
T00720039 53007





000
SAUS44 KSHV 160157
MTRAQV
METAR KAQV 160156Z AUTO 00000KT 10SM CLR 08/06 A3017 RMK AO2 SLP219
T00830056





000
SAUS44 KSHV 160156
MTRPOE
METAR KPOE 160155Z AUTO 00000KT 10SM CLR 08/04 A3018 RMK AO2 SLP225
T00830044





000
SAUS44 KSHV 160155
MTRBKB
METAR KBKB 160154Z AUTO 00000KT 10SM CLR 08/04 A3016 RMK AO2 SLP245
T00830044





000
SAUS44 KSHV 160057
MTRAQV
METAR KAQV 160056Z AUTO 00000KT 10SM CLR 10/06 A3016 RMK AO2 SLP216
T01000061





000
SAUS44 KSHV 160056
MTRPOE
METAR KPOE 160055Z AUTO 02003KT 10SM CLR 10/04 A3017 RMK AO2 SLP222
T01000039





000
SAUS44 KSHV 160055
MTRBKB
METAR KBKB 160054Z AUTO 00000KT 10SM CLR 11/03 A3016 RMK AO2 SLP242
T01060033





000
SAUS44 KSHV 152357
MTRAQV
METAR KAQV 152356Z AUTO VRB03KT 10SM CLR 14/00 A3016 RMK AO2 SLP215
T01440000 10156 20122 55000





000
SAUS44 KSHV 152356
MTRPOE
METAR KPOE 152355Z AUTO 34005KT 10SM CLR 14/M01 A3017 RMK AO2 SLP222
T01391011 10150 20122 53001





000
SAUS44 KSHV 152355
MTRBKB
METAR KBKB 152354Z AUTO 01003KT 10SM CLR 14/M01 A3015 RMK AO2 SLP241
T01441006 10167 20139 53002





000
SAUS44 KSHV 152257
MTRAQV
METAR KAQV 152256Z AUTO 02005KT 10SM CLR 15/M01 A3016 RMK AO2 SLP214
T01501011





000
SAUS44 KSHV 152256
MTRPOE
METAR KPOE 152255Z AUTO 34010KT 10SM CLR 15/M01 A3017 RMK AO2 SLP220
T01501011





000
SAUS44 KSHV 152255
MTRBKB
METAR KBKB 152254Z AUTO VRB04KT 10SM CLR 16/M02 A3015 RMK AO2 SLP240
T01561017





000
SAUS44 KSHV 152158
MTRAQV
METAR KAQV 152156Z AUTO 34004KT 10SM CLR 14/M02 A3016 RMK AO2 SLP214
T01441017





000
SAUS44 KSHV 152156
MTRPOE
METAR KPOE 152155Z AUTO 33007G15KT 10SM CLR 15/M01 A3016 RMK AO2
SLP219 T01501011





000
SAUS44 KSHV 152155
MTRBKB
METAR KBKB 152154Z AUTO VRB06KT 10SM CLR 16/M02 A3014 RMK AO2 SLP237
T01611017





000
SAUS44 KSHV 152057
MTRAQV
METAR KAQV 152056Z AUTO 10SM CLR 15/M01 A3016 RMK AO2 SLP215
T01501006 56020





000
SAUS44 KSHV 152056
MTRPOE
METAR KPOE 152055Z AUTO 36010G15KT 10SM CLR 15/M02 A3017 RMK AO2
SLP221 T01501017 56019





000
SAUS44 KSHV 152055
MTRBKB
METAR KBKB 152054Z AUTO VRB04KT 10SM CLR 16/M02 A3015 RMK AO2 SLP483
T01611017 57018





000
SAUS44 KSHV 151957
MTRAQV
METAR KAQV 151956Z AUTO 36009G17KT 320V030 10SM CLR 14/M01 A3018 RMK
AO2 SLP220 T01441011





000
SAUS44 KSHV 151956
MTRPOE
METAR KPOE 151955Z AUTO 02011G20KT 10SM CLR 14/M02 A3019 RMK AO2
SLP226 T01441017





000
SAUS44 KSHV 151955
MTRBKB
METAR KBKB 151954Z AUTO 36007KT 310V050 10SM CLR 16/M02 A3016 RMK
AO2 SLP488 T01561022





000
SAUS44 KSHV 151857
MTRPOE
METAR KPOE 151855Z AUTO 34011KT 10SM CLR 13/M02 A3020 RMK AO2 SLP232
T01331017





000
SAUS44 KSHV 151857
MTRAQV
METAR KAQV 151856Z AUTO 01011G15KT 10SM CLR 14/M01 A3019 RMK AO2
SLP225 T01391011





000
SAUS44 KSHV 151855
MTRBKB
METAR KBKB 151854Z AUTO 01007G16KT 330V040 10SM CLR 14/M03 A3019 RMK
AO2 SLP252 T01441028





000
SAUS44 KSHV 151757
MTRAQV
METAR KAQV 151756Z AUTO 03011G18KT 340V060 10SM CLR 13/M02 A3022 RMK
AO2 PK WND 03026/1745 SLP235 T01281017 10128 20033 58007





000
SAUS44 KSHV 151756
MTRPOE
METAR KPOE 151755Z AUTO 01010G22KT 10SM CLR 12/M03 A3023 RMK AO2
SLP240 T01171028 10122 20033 58008





000
SAUS44 KSHV 151755
MTRBKB
METAR KBKB 151754Z AUTO 03007KT 10SM CLR 14/M02 A3020 RMK AO2 SLP257
T01391022 10139 20044 58007





000
SAUS44 KSHV 151658
MTRAQV
METAR KAQV 151656Z AUTO 02011G21KT 10SM CLR 11/M02 A3024 RMK AO2
SLP241 T01111022





000
SAUS44 KSHV 151657
MTRPOE
METAR KPOE 151655Z AUTO 03014G22KT 10SM CLR 11/M03 A3024 RMK AO2 PK
WND 02029/1616 SLP243 T01111033





000
SAUS44 KSHV 151656
MTRBKB
METAR KBKB 151654Z AUTO 02009G20KT 340V050 10SM CLR 12/M03 A3022 RMK
AO2 SLP262 T01221033





000
SAUS44 KSHV 151557
MTRPOE
METAR KPOE 151555Z AUTO 01018G25KT 10SM CLR 10/M04 A3025 RMK AO2
SLP248 T01001039





000
SAUS44 KSHV 151557
MTRAQV
METAR KAQV 151556Z AUTO 04013G21KT 10SM CLR 10/M03 A3025 RMK AO2
SLP243 T01001033





000
SAUS44 KSHV 151555
MTRBKB
METAR KBKB 151554Z AUTO 02007KT 360V100 10SM CLR 11/M03 A3023 RMK
AO2 SLP266 T01111033





000
SAUS44 KSHV 151457
MTRAQV
METAR KAQV 151456Z AUTO 36009KT 10SM CLR 08/M02 A3024 RMK AO2 SLP243
T00831022 51017





000
SAUS44 KSHV 151456
MTRPOE
METAR KPOE 151455Z AUTO 01013G18KT 10SM CLR 08/M03 A3025 RMK AO2
SLP249 T00831033 51021





000
SAUS44 KSHV 151455
MTRBKB
METAR KBKB 151454Z AUTO VRB06G17KT 10SM CLR 09/M03 A3023 RMK AO2
SLP266 T00941033 51018





000
SAUS44 KSHV 151357
MTRPOE
METAR KPOE 151355Z AUTO 02013G20KT 10SM CLR 06/M02 A3024 RMK AO2
SLP245 T00611017





000
SAUS44 KSHV 151357
MTRAQV
METAR KAQV 151356Z AUTO 01009G24KT 10SM CLR 06/M03 A3024 RMK AO2
SLP241 T00611028





000
SAUS44 KSHV 151355
MTRBKB
METAR KBKB 151354Z AUTO 03008G15KT 360V070 10SM CLR 07/M03 A3022 RMK
AO2 SLP264 T00721028





000
SAUS44 KSHV 151259
MTRAQV
METAR KAQV 151256Z AUTO 36009G17KT 10SM CLR 04/00 A3022 RMK AO2
SLP234 T00440000





000
SAUS44 KSHV 151256
MTRPOE
METAR KPOE 151255Z AUTO 36011G21KT 10SM CLR 04/00 A3022 RMK AO2
SLP239 T00440000 $





000
SAUS44 KSHV 151255
MTRBKB
METAR KBKB 151254Z AUTO VRB06KT 10SM CLR 06/01 A3020 RMK AO2 SLP256
T00610006





000
SAUS44 KSHV 151157
MTRAQV
METAR KAQV 151156Z AUTO VRB06KT 10SM CLR 03/01 A3019 RMK AO2 SLP227
70063 T00330011 10072 20033 53015





000
SAUS44 KSHV 151156
MTRPOE
METAR KPOE 151155Z AUTO 35013KT 10SM CLR 03/01 A3019 RMK AO2 SLP228
70073 T00330011 10072 20033 53013 $





000
SAUS44 KSHV 151156
MTRBKB
METAR KBKB 151154Z AUTO VRB04KT 10SM CLR 04/01 A3017 RMK AO2 SLP248
70059 T00440011 10083 20044 53016





000
SAUS44 KSHV 151057
MTRAQV
METAR KAQV 151056Z AUTO 36004KT 10SM CLR 03/02 A3017 RMK AO2 SLP217
T00330017





000
SAUS44 KSHV 151056
MTRBKB
METAR KBKB 151054Z AUTO VRB04KT 10SM CLR 05/01 A3015 RMK AO2 SLP240
T00500006





000
SAUS44 KSHV 151056
MTRPOE
METAR KPOE 151055Z AUTO 35007KT 10SM CLR 03/02 A3017 RMK AO2 SLP221
T00330017 $





000
SAUS44 KSHV 150958
MTRAQV
METAR KAQV 150956Z AUTO 00000KT 10SM CLR 03/02 A3016 RMK AO2 SLP213
T00330017





000
SAUS44 KSHV 150956
MTRPOE
METAR KPOE 150955Z AUTO 34008KT 10SM CLR 04/02 A3016 RMK AO2 SLP218
T00390017 $





000
SAUS44 KSHV 150955
MTRBKB
METAR KBKB 150954Z AUTO 10SM CLR 06/00 A3014 RMK AO2 SLP235
T00560000





000
SAUS44 KSHV 150857
MTRAQV
METAR KAQV 150856Z AUTO 36005KT 10SM CLR 05/01 A3015 RMK AO2 SLP211
T00500011 51016





000
SAUS44 KSHV 150857
MTRPOE
METAR KPOE 150855Z AUTO 35014G19KT 10SM CLR 05/01 A3015 RMK AO2
SLP214 T00500006 51015 $





000
SAUS44 KSHV 150856
MTRBKB
METAR KBKB 150854Z AUTO VRB04KT 10SM CLR 07/00 A3013 RMK AO2 SLP231
T00670000 51015





000
SAUS44 KSHV 150757
MTRAQV
METAR KAQV 150756Z AUTO 35007KT 10SM CLR 06/01 A3014 RMK AO2 SLP206
T00560011





000
SAUS44 KSHV 150756
MTRPOE
METAR KPOE 150755Z AUTO 35012G22KT 10SM BKN033 06/01 A3014 RMK AO2
SLP210 T00610011 $





000
SAUS44 KSHV 150755
MTRBKB
METAR KBKB 150754Z AUTO 34007G19KT 310V010 10SM OVC033 08/01 A3011
RMK AO2 SLP225 T00780006





000
SAUS44 KSHV 150738
MTRBKB
SPECI KBKB 150737Z AUTO 36007G16KT 10SM SCT028 OVC033 08/01 A3011
RMK AO2 T00780011





000
SAUS44 KSHV 150659
MTRAQV
METAR KAQV 150656Z AUTO 34008KT 300V010 10SM OVC033 07/02 A3013 RMK
AO2 SLP202 T00720017





000
SAUS44 KSHV 150656
MTRPOE
METAR KPOE 150655Z AUTO 34017G22KT 10SM OVC031 07/01 A3013 RMK AO2
SLP204 T00670011 $





000
SAUS44 KSHV 150655
MTRBKB
METAR KBKB 150654Z AUTO VRB04KT 10SM OVC024 08/03 A3010 RMK AO2
SLP222 T00780028





000
SAUS44 KSHV 150638
MTRPOE
SPECI KPOE 150637Z AUTO 36014G21KT 10SM OVC031 07/02 A3012 RMK AO2 $





000
SAUS44 KSHV 150558
MTRAQV
METAR KAQV 150556Z AUTO 35010G20KT 310V020 10SM OVC031 07/02 A3010
RMK AO2 SLP192 T00720022 10089 20072 402560072 51021





000
SAUS44 KSHV 150556
MTRPOE
METAR KPOE 150555Z AUTO 34016G24KT 10SM OVC029 07/02 A3010 RMK AO2
SLP197 60001 T00720022 10089 20072 51025 $





000
SAUS44 KSHV 150555
MTRBKB
METAR KBKB 150554Z AUTO 10SM OVC027 08/03 A3008 RMK AO2 SLP214 60001
T00830028 10100 20083 402720083 51025





000
SAUS44 KSHV 150526
MTRAQV
SPECI KAQV 150525Z AUTO 35008G15KT 10SM OVC031 07/03 A3009 RMK AO2
T00720028





000
SAUS44 KSHV 150458
MTRAQV
METAR KAQV 150456Z AUTO 35009G18KT 10SM OVC029 08/03 A3008 RMK AO2
SLP187 T00780028





000
SAUS44 KSHV 150457
MTRPOE
METAR KPOE 150455Z AUTO 35012KT 10SM OVC025 07/03 A3009 RMK AO2
SLP191 T00720033 402560072 $





000
SAUS44 KSHV 150455
MTRBKB
METAR KBKB 150454Z AUTO VRB06KT 10SM OVC026 08/03 A3006 RMK AO2
SLP206 T00830033





000
SAUS44 KSHV 150430
MTRAQV
SPECI KAQV 150429Z AUTO 35013G21KT 10SM OVC030 08/03 A3007 RMK AO2
T00780033





000
SAUS44 KSHV 150357
MTRAQV
METAR KAQV 150356Z AUTO 36009G22KT 10SM OVC027 08/03 A3006 RMK AO2
SLP179 T00780028





000
SAUS44 KSHV 150356
MTRPOE
METAR KPOE 150355Z AUTO 35013G21KT 10SM OVC023 08/04 A3006 RMK AO2
PK WND 34027/0256 SLP183 T00780039





000
SAUS44 KSHV 150355
MTRBKB
METAR KBKB 150354Z AUTO VRB06G17KT 10SM OVC022 09/04 A3004 RMK AO2
SLP198 T00890039





000
SAUS44 KSHV 150320
MTRBKB
SPECI KBKB 150318Z AUTO 35007KT 200V050 10SM SCT013 OVC021 09/05
A3001 RMK AO2 T00940050





000
SAUS44 KSHV 150257
MTRAQV
METAR KAQV 150256Z AUTO 36012G18KT 10SM OVC026 08/04 A3004 RMK AO2
SLP171 T00830044 51049





000
SAUS44 KSHV 150257
MTRPOE
METAR KPOE 150255Z AUTO 34016G26KT 10SM OVC023 08/04 A3003 RMK AO2
PK WND 34028/0244 SLP171 60001 T00830044 53039





000
SAUS44 KSHV 150255
MTRBKB
METAR KBKB 150254Z AUTO VRB05KT 10SM OVC013 09/07 A3001 RMK AO2
SLP189 60001 T00940067 51045





000
SAUS44 KSHV 150242
MTRBKB
SPECI KBKB 150241Z AUTO VRB05KT 10SM OVC013 09/07 A3000 RMK AO2
T00940067





000
SAUS44 KSHV 150157
MTRAQV
METAR KAQV 150156Z AUTO 34010G18KT 300V010 10SM OVC017 09/07 A2999
RMK AO2 SLP154 T00890067





000
SAUS44 KSHV 150156
MTRPOE
METAR KPOE 150155Z 34012G21KT 10SM OVC017 08/07 A3000 RMK AO2
RAB08E19 PRESRR SLP161 P0000 T00830067





000
SAUS44 KSHV 150156
MTRBKB
METAR KBKB 150154Z AUTO 35007G16KT 290V020 10SM OVC016 09/06 A2997
RMK AO2 RAB16E32 PRESRR SLP178 P0000 T00940061





000
SAUS44 KSHV 150135
MTRAQV
SPECI KAQV 150134Z AUTO 35008KT 10SM OVC016 09/07 A2997 RMK AO2
T00890067





000
SAUS44 KSHV 150134
MTRBKB
SPECI KBKB 150133Z AUTO 36007G18KT 320V050 10SM OVC016 09/06 A2995
RMK AO2 RAB16E32 P0000 T00940061





000
SAUS44 KSHV 150128
MTRAQV
SPECI KAQV 150126Z AUTO 34007KT 10SM OVC014 09/07 A2997 RMK AO2
T00890067





000
SAUS44 KSHV 150113
MTRAQV
SPECI KAQV 150112Z AUTO 34008KT 10SM OVC016 09/07 A2996 RMK AO2
T00890067





000
SAUS44 KSHV 150058
MTRAQV
METAR KAQV 150056Z AUTO 34007G15KT 290V010 10SM OVC012 09/07 A2995
RMK AO2 SLP142 T00890067





000
SAUS44 KSHV 150056
MTRPOE
METAR KPOE 150055Z 35016G29KT 10SM FEW009 OVC015 08/07 A2992 RMK AO2
PK WND 34029/0047 RAE19 SLP135 P0001 T00830067





000
SAUS44 KSHV 150055
MTRBKB
METAR KBKB 150054Z AUTO 34007G21KT 300V010 10SM BKN010 OVC014 09/07
A2991 RMK AO2 RAE36 CIG 007V013 SLP158 P0001 T00940072





000
SAUS44 KSHV 150048
MTRPOE
SPECI KPOE 150047Z 34021G29KT 10SM FEW008 OVC013 08/07 A2993 RMK AO2
PK WND 34029/0047 RAE19 P0001





000
SAUS44 KSHV 150037
MTRPOE
SPECI KPOE 150036Z 34014G20KT 10SM OVC011 09/08 A2993 RMK AO2 RAE19
P0001





000
SAUS44 KSHV 150035
MTRBKB
SPECI KBKB 150034Z AUTO 10SM -RA OVC008 09/07 A2991 RMK AO2 CIG
007V012 P0001 T00940072





000
SAUS44 KSHV 150030
MTRAQV
SPECI KAQV 150029Z AUTO 33010G17KT 200V360 10SM OVC010 09/07 A2993
RMK AO2 CIG 007V012 T00890072





000
SAUS44 KSHV 150023
MTRPOE
SPECI KPOE 150022Z 33013G20KT 10SM OVC009 08/08 A2992 RMK AO2 RAE19
CIG 007V014 P0001





000
SAUS44 KSHV 150010
MTRPOE
SPECI KPOE 150009Z 34014KT 10SM -RA OVC011 09/07 A2992 RMK AO2 CIG
007V014 P0001





000
SAUS44 KSHV 142358
MTRAQV
METAR KAQV 142356Z AUTO 35012G20KT 300V020 10SM OVC009 09/07 A2989
RMK AO2 RAE43 CIG 006V010 SLP121 P0006 60063 T00890072 10172 20083
55013





000
SAUS44 KSHV 142356
MTRBKB
METAR KBKB 142354Z AUTO 34007KT 280V040 4SM RA BKN010 OVC014 10/07
A2987 RMK AO2 SLP144 P0004 60058 T01000072 10267 20100 53002





000
SAUS44 KSHV 142356
MTRPOE
METAR KPOE 142355Z 34016G23KT 10SM -RA OVC009 08/07 A2991 RMK AO2 PK
WND 35026/2256 CIG 007V015 SLP132 P0005 60072 T00830072 10244 20083
55012





000
SAUS44 KSHV 142330
MTRAQV
SPECI KAQV 142329Z AUTO 33009G17KT 280V360 3SM RA BR OVC009 08/07
A2989 RMK AO2 CIG 006V012 P0005 T00830072





000
SAUS44 KSHV 142315
MTRAQV
SPECI KAQV 142314Z AUTO 36012G21KT 5SM RA BR OVC010 08/07 A2988 RMK
AO2 CIG 005V012 P0002 T00830072





000
SAUS44 KSHV 142257
MTRAQV
METAR KAQV 142256Z AUTO 35011G19KT 10SM -RA BKN008 OVC011 09/08
A2986 RMK AO2 SLP112 P0012 T00890078





000
SAUS44 KSHV 142256
MTRPOE
METAR KPOE 142255Z 34015G27KT 10SM -RA OVC009 09/08 A2987 RMK AO2 PK
WND 35028/2220 CIG 007V013 SLP118 P0010 T00890078





000
SAUS44 KSHV 142256
MTRBKB
METAR KBKB 142254Z AUTO 34007G20KT 10SM -RA OVC010 11/08 A2984 RMK
AO2 CIG 007V012 PRESRR SLP133 P0008 T01060078





000
SAUS44 KSHV 142237
MTRPOE
SPECI KPOE 142236Z 35015G26KT 10SM -RA BKN009 BKN090 OVC110 09/08
A2984 RMK AO2 PK WND 35028/2220 CIG 007V014 P0009





000
SAUS44 KSHV 142230
MTRBKB
SPECI KBKB 142229Z AUTO 36010G15KT 7SM -RA BKN009 BKN042 OVC110
11/08 A2981 RMK AO2 PRESFR P0007 T01060083





000
SAUS44 KSHV 142225
MTRPOE
SPECI KPOE 142224Z 35014G28KT 9SM -RA FEW009 BKN095 OVC110 09/08
A2984 RMK AO2 PK WND 35028/2220 P0009





000
SAUS44 KSHV 142217
MTRPOE
SPECI KPOE 142216Z 36016G28KT 5SM +RA BR SCT011 SCT035 OVC095 09/08
A2982 RMK AO2 PK WND 36028/2216 PRESFR P0008





000
SAUS44 KSHV 142216
MTRBKB
SPECI KBKB 142215Z AUTO VRB05KT 5SM RA BR SCT009 BKN038 OVC100 11/08
A2985 RMK AO2 P0005 T01060083





000
SAUS44 KSHV 142207
MTRBKB
SPECI KBKB 142206Z AUTO VRB06G18KT 6SM RA BR BKN009 BKN036 OVC100
11/09 A2987 RMK AO2 P0002 T01110089





000
SAUS44 KSHV 142202
MTRAQV
SPECI KAQV 142201Z AUTO VRB05KT 3SM RA BR BKN007 OVC013 09/08 A2992
RMK AO2 P0001 T00940083





000
SAUS44 KSHV 142157
MTRAQV
METAR KAQV 142156Z AUTO VRB06KT 1 3/4SM RA BR BKN008 OVC013 09/09
A2992 RMK AO2 TSE18 CIG 004V011 SLP130 P0026 T00940089





000
SAUS44 KSHV 142156
MTRPOE
METAR KPOE 142155Z 35019G26KT 7SM RA BKN011 OVC023 10/09 A2987 RMK
AO2 PK WND 33027/2104 TSE18 PRESFR SLP116 P0022 T01000089





000
SAUS44 KSHV 142155
MTRBKB
METAR KBKB 142154Z AUTO VRB06G16KT 7SM -RA SCT011 BKN065 OVC100
11/09 A2987 RMK AO2 TSE13 PRESFR SLP142 P0024 T01110089





000
SAUS44 KSHV 142153
MTRAQV
SPECI KAQV 142152Z AUTO VRB05KT 1 1/2SM +RA BR OVC008 09/09 A2993
RMK AO2 TSE18 P0025





000
SAUS44 KSHV 142140
MTRPOE
SPECI KPOE 142139Z 34017G26KT 9SM RA SCT009 BKN013 OVC075 10/09
A2990 RMK AO2 PK WND 33027/2104 TSE18 PRESFR P0018





000
SAUS44 KSHV 142136
MTRBKB
SPECI KBKB 142134Z AUTO 33012G18KT 5SM -RA BR SCT009 BKN040 OVC100
12/09 A2991 RMK AO2 TSE13 P0022 T01170094





000
SAUS44 KSHV 142124
MTRBKB
SPECI KBKB 142123Z AUTO VRB04KT 2SM +RA BR BKN008 BKN038 OVC055
12/10 A2990 RMK AO2 TSE13 P0019 T01220100





000
SAUS44 KSHV 142123
MTRAQV
SPECI KAQV 142121Z AUTO VRB06KT 2 1/2SM RA BR OVC008 11/09 A2994 RMK
AO2 TSE18 CIG 004V011 P0008 T01060094





000
SAUS44 KSHV 142121
MTRBKB
SPECI KBKB 142119Z AUTO VRB05KT 1 3/4SM +RA BR SCT010 BKN038 OVC046
12/10 A2991 RMK AO2 TSE13 P0017 T01220100





000
SAUS44 KSHV 142119
MTRPOE
SPECI KPOE 142118Z 32013G25KT 5SM RA BR BKN009 BKN023 OVC080 11/09
A2994 RMK AO2 PK WND 33027/2104 TSE18 P0014





000
SAUS44 KSHV 142114
MTRBKB
SPECI KBKB 142112Z AUTO 32007G17KT 290V030 1 1/2SM +TSRA BR FEW010
BKN038 OVC044 12/10 A2991 RMK AO2 P0013 T01220100





000
SAUS44 KSHV 142113
MTRPOE
SPECI KPOE 142112Z 33014G27KT 3SM +TSRA BR SCT009 BKN012 OVC027
11/09 A2993 RMK AO2 PK WND 33027/2104 P0012





000
SAUS44 KSHV 142112
MTRAQV
SPECI KAQV 142111Z AUTO VRB05KT 3SM TSRA BR OVC008 10/09 A2995 RMK
AO2 CIG 006V012 P0004 T01000094





000
SAUS44 KSHV 142103
MTRPOE
SPECI KPOE 142103Z 33020G27KT 2SM +TSRA BR BKN009 OVC024 11/09 A2993
RMK AO2 PK WND 33027/2101 P0007





000
SAUS44 KSHV 142058
MTRAQV
METAR KAQV 142056Z AUTO VRB05G19KT 2SM TSRA BR OVC008 11/09 A2994
RMK AO2 RAB06 TSB1958 SLP139 P0019 60019 T01060094 53058





000
SAUS44 KSHV 142056
MTRPOE
METAR KPOE 142055Z 31014G27KT 2SM +TSRA BR SCT009 BKN029 OVC041
11/10 A2995 RMK AO2 PK WND 32027/2046 SLP143 P0031 60035 T01110100
53054





000
SAUS44 KSHV 142055
MTRBKB
METAR KBKB 142054Z AUTO VRB04KT 2 1/2SM TSRA BR FEW008 BKN040 OVC048
13/11 A2990 RMK AO2 TSE29B46 PRESRR SLP152 P0021 60022 T01280106
51043





000
SAUS44 KSHV 142054
MTRPOE
SPECI KPOE 142053Z 31015G27KT 2SM +TSRA BR SCT009 BKN031 OVC041
11/10 A2995 RMK AO2 PK WND 32027/2046 P0030





000
SAUS44 KSHV 142053
MTRBKB
SPECI KBKB 142052Z AUTO 30007KT 3SM TSRA BR FEW008 SCT031 OVC042
13/11 A2990 RMK AO2 TSE29B46 PRESRR P0020





000
SAUS44 KSHV 142041
MTRBKB
SPECI KBKB 142039Z AUTO VRB04KT 3SM RA BR SCT029 OVC036 13/11 A2988
RMK AO2 TSE29 P0015 T01330111





000
SAUS44 KSHV 142040
MTRPOE
SPECI KPOE 142039Z 32015G23KT 4SM +TSRA BR FEW011 SCT029 OVC042
12/11 A2992 RMK AO2 PRESRR P0018





000
SAUS44 KSHV 142040
MTRAQV
SPECI KAQV 142039Z AUTO VRB06KT 2 1/2SM TSRA BR BKN008 OVC012 11/10
A2992 RMK AO2 RAB06 TSB1958 P0013 T01110100





000
SAUS44 KSHV 142031
MTRAQV
SPECI KAQV 142029Z AUTO VRB05KT 1 1/4SM +TSRA BR SCT006 BKN010
OVC033 11/10 A2992 RMK AO2 RAB06 TSB1958 PRESRR P0010 T01110100





000
SAUS44 KSHV 142030
MTRBKB
SPECI KBKB 142029Z AUTO VRB05KT 2SM +RA BR SCT010 OVC027 13/11 A2987
RMK AO2 TSE29 P0011 T01330111





000
SAUS44 KSHV 142025
MTRBKB
SPECI KBKB 142023Z AUTO VRB05KT 2 1/2SM TSRA BR BKN010 OVC027 13/11
A2986 RMK AO2 CIG 007V015 P0007 T01330111





000
SAUS44 KSHV 142023
MTRAQV
SPECI KAQV 142022Z AUTO 30007KT 1 3/4SM +TSRA BR SCT011 BKN015
OVC031 12/10 A2990 RMK AO2 RAB06 TSB1958 PRESRR P0006 T01170100





000
SAUS44 KSHV 142015
MTRPOE
SPECI KPOE 142013Z 34009KT 5SM TSRA BR SCT009 SCT017 OVC025 12/11
A2988 RMK AO2 P0005





000
SAUS44 KSHV 141957
MTRAQV
METAR KAQV 141956Z AUTO 35007KT 10SM TS FEW010 FEW024 OVC030 12/10
A2985 RMK AO2 PK WND 32027/1920 RAE00B06E34 TSB00B07E23B52 SLP106
P0000 T01220100





000
SAUS44 KSHV 141956
MTRPOE
METAR KPOE 141955Z 33013G21KT 9SM -TSRA OVC009 12/11 A2986 RMK AO2
PK WND 31037/1904 WSHFT 1858 TSB32 CIG 006V012 PRESRR SLP115 P0004
T01220111





000
SAUS44 KSHV 141956
MTRBKB
METAR KBKB 141954Z AUTO VRB06KT 10SM -TSRA OVC007 14/12 A2985 RMK
AO2 RAB13 TSB50 CIG 006V011 SLP134 P0001 T01440122





000
SAUS44 KSHV 141949
MTRBKB
SPECI KBKB 141947Z AUTO 33008G15KT 290V030 10SM -RA BKN007 OVC011
16/13 A2983 RMK AO2 RAB13 CIG 006V009 P0001 T01560128





000
SAUS44 KSHV 141936
MTRBKB
SPECI KBKB 141934Z AUTO 29008G22KT 250V340 8SM -RA BKN010 BKN019
OVC047 17/14 A2982 RMK AO2 RAB13 P0001 T01670139





000
SAUS44 KSHV 141934
MTRPOE
SPECI KPOE 141933Z 32020G30KT 10SM -TSRA OVC009 14/13 A2985 RMK AO2
PK WND 31037/1904 WSHFT 1858 TSB32 CIG 007V013 P0003





000
SAUS44 KSHV 141927
MTRAQV
SPECI KAQV 141926Z AUTO 34008G27KT 300V010 7SM -RA OVC006 13/12
A2986 RMK AO2 PK WND 32027/1920 RAE00B06 TSB00B07E23 CIG 004V010
P0000 T01280117





000
SAUS44 KSHV 141913
MTRPOE
SPECI KPOE 141912Z 32027G37KT 6SM -RA BR BKN009 BKN047 OVC055 17/15
A2984 RMK AO2 PK WND 31037/1904 WSHFT 1858 P0002





000
SAUS44 KSHV 141908
MTRPOE
SPECI KPOE 141907Z AUTO 32023G37KT 6SM RA BR SCT009 BKN019 OVC050
18/16 A2984 RMK AO2 PK WND 31037/1904 PRESRR P0002





000
SAUS44 KSHV 141901
MTRAQV
SPECI KAQV 141900Z AUTO 30009G19KT 260V360 5SM TS BR OVC006 17/16
A2986 RMK AO2 RAE00 TSB00 CIG 004V009 PRESRR P0000 T01720156





000
SAUS44 KSHV 141857
MTRAQV
METAR KAQV 141856Z AUTO 31007G20KT 280V350 5SM -RA BR BKN006 OVC027
18/16 A2984 RMK AO2 RAB39 CIG 004V009 PRESRR SLP102 P0000 T01780161





000
SAUS44 KSHV 141856
MTRPOE
METAR KPOE 141855Z AUTO 23005KT 10SM -RA FEW045 BKN050 BKN070 23/20
A2981 RMK AO2 RAB55 SLP094 P0000 T02330200





000
SAUS44 KSHV 141856
MTRBKB
METAR KBKB 141854Z AUTO VRB03KT 10SM BKN065 24/19 A2977 RMK AO2
SLP108 T02440194





000
SAUS44 KSHV 141842
MTRAQV
SPECI KAQV 141841Z AUTO VRB06KT 9SM -RA BKN008 BKN029 OVC048 20/18
A2981 RMK AO2 RAB39 CIG 007V011 PRESRR P0000 T02000183





000
SAUS44 KSHV 141836
MTRAQV
SPECI KAQV 141835Z AUTO VRB06KT 10SM SCT010 BKN029 OVC048 21/18
A2979 RMK AO2 T02110183





000
SAUS44 KSHV 141757
MTRAQV
METAR KAQV 141756Z AUTO VRB05KT 10SM BKN055 25/19 A2977 RMK AO2
SLP078 T02500194 10256 20211 58010





000
SAUS44 KSHV 141756
MTRBKB
METAR KBKB 141754Z AUTO 00000KT 10SM FEW027 27/19 A2976 RMK AO2
SLP103 T02670194 10272 20217 58024





000
SAUS44 KSHV 141756
MTRPOE
METAR KPOE 141755Z AUTO 19009KT 10SM FEW028 24/19 A2979 RMK AO2
SLP087 T02440194 10256 20206 58022





000
SAUS44 KSHV 141743
MTRBKB
SPECI KBKB 141742Z AUTO VRB03KT 1 3/4SM HZ FEW027 27/19 A2976 RMK
AO2 T02720194





000
SAUS44 KSHV 141658
MTRAQV
METAR KAQV 141656Z AUTO 19006KT 10SM FEW022 25/19 A2979 RMK AO2
SLP085 T02500194





000
SAUS44 KSHV 141656
MTRPOE
METAR KPOE 141655Z AUTO 19008G16KT 10SM CLR 24/19 A2982 RMK AO2
SLP098 T02440194





000
SAUS44 KSHV 141655
MTRBKB
METAR KBKB 141654Z AUTO VRB03KT 10SM FEW026 26/19 A2980 RMK AO2
SLP116 T02560194





000
SAUS44 KSHV 141641
MTRBKB
SPECI KBKB 141639Z AUTO VRB04KT 10SM SCT027 26/19 A2980 RMK AO2
T02610194





000
SAUS44 KSHV 141625
MTRBKB
SPECI KBKB 141623Z AUTO 20006KT 10SM BKN025 26/19 A2981 RMK AO2
T02560189





000
SAUS44 KSHV 141557
MTRAQV
METAR KAQV 141556Z AUTO 19006KT 10SM FEW017 25/21 A2980 RMK AO2
SLP087 T02500206





000
SAUS44 KSHV 141556
MTRBKB
METAR KBKB 141554Z AUTO VRB05KT 10SM FEW023 SCT050 26/19 A2982 RMK
AO2 SLP124 T02560194





000
SAUS44 KSHV 141556
MTRPOE
METAR KPOE 141555Z AUTO 20008KT 10SM SCT021 SCT050 24/19 A2984 RMK
AO2 SLP105 T02390194





000
SAUS44 KSHV 141555
MTRAQV
SPECI KAQV 141554Z AUTO 19008KT 160V230 10SM FEW017 25/21 A2980 RMK
AO2





000
SAUS44 KSHV 141519
MTRPOE
SPECI KPOE 141518Z AUTO 20006KT 10SM FEW014 BKN034 OVC048 23/20
A2984 RMK AO2





000
SAUS44 KSHV 141514
MTRAQV
SPECI KAQV 141513Z AUTO VRB06KT 9SM SCT013 SCT022 BKN028 23/20 A2982
RMK AO2 T02330200





000
SAUS44 KSHV 141510
MTRPOE
SPECI KPOE 141509Z AUTO 20007KT 10SM SCT014 BKN024 OVC046 23/21
A2985 RMK AO2





000
SAUS44 KSHV 141459
MTRAQV
METAR KAQV 141456Z AUTO 19007KT 170V230 9SM BKN012 BKN041 23/21
A2982 RMK AO2 SLP095 T02330206 51024





000
SAUS44 KSHV 141456
MTRBKB
METAR KBKB 141454Z AUTO VRB05KT 10SM SCT015 SCT030 BKN042 24/20
A2983 RMK AO2 SLP127 T02390200





000
SAUS44 KSHV 141456
MTRPOE
METAR KPOE 141455Z AUTO 19008KT 10SM BKN014 BKN028 OVC035 23/20
A2985 RMK AO2 SLP110 T02280200 51025





000
SAUS44 KSHV 141449
MTRBKB
SPECI KBKB 141447Z AUTO VRB05KT 10SM SCT012 BKN030 OVC042 24/21
A2982 RMK AO2 T02390206





000
SAUS44 KSHV 141443
MTRAQV
SPECI KAQV 141442Z AUTO VRB04KT 8SM BKN012 OVC041 23/21 A2982 RMK
AO2 T02280206





000
SAUS44 KSHV 141441
MTRPOE
SPECI KPOE 141440Z AUTO 20008KT 10SM SCT011 BKN016 OVC042 23/21
A2985 RMK AO2





000
SAUS44 KSHV 141420
MTRAQV
SPECI KAQV 141419Z AUTO VRB04KT 7SM SCT011 SCT033 OVC039 23/21 A2982
RMK AO2 T02280206





000
SAUS44 KSHV 141408 COR
MTRBKB
SPECI KBKB 141404Z AUTO 00000KT 10SM BKN011 OVC027 23/20 A2981 RMK
AO2 CIG 007V015 T02330200





000
SAUS44 KSHV 141405
MTRAQV
SPECI KAQV 141404Z AUTO VRB04KT 7SM SCT009 BKN018 OVC036 22/21 A2982
RMK AO2 T02220206





000
SAUS44 KSHV 141405
MTRBKB
SPECI KBKB 141404Z AUTO 00000KT 10SM BKN011 OVC027 23/20 A2981 RMK
AO2 CIG 007V015 T02330200





000
SAUS44 KSHV 141357
MTRAQV
METAR KAQV 141356Z AUTO VRB05KT 6SM BR BKN009 BKN014 OVC020 22/21
A2981 RMK AO2 CIG 007V012 SLP091 T02220206





000
SAUS44 KSHV 141357
MTRPOE
METAR KPOE 141355Z AUTO 20005KT 10SM BKN009 BKN021 OVC027 22/20
A2983 RMK AO2 CIG 007V013 SLP103 T02170200





000
SAUS44 KSHV 141355
MTRBKB
METAR KBKB 141354Z AUTO 9SM BKN009 OVC013 23/20 A2981 RMK AO2 CIG
007V011 SLP119 T02280200





000
SAUS44 KSHV 141345
MTRAQV
SPECI KAQV 141344Z AUTO VRB04KT 7SM SCT009 BKN012 OVC022 22/21 A2981
RMK AO2 T02220206





000
SAUS44 KSHV 141325
MTRPOE
SPECI KPOE 141324Z AUTO 19008KT 9SM OVC009 22/20 A2982 RMK AO2





000
SAUS44 KSHV 141324
MTRBKB
SPECI KBKB 141323Z AUTO 8SM BKN007 BKN022 23/20 A2979 RMK AO2
T02280200 $





000
SAUS44 KSHV 141259
MTRBKB
METAR KBKB 141254Z AUTO 00000KT 22/20 A2978 RMK AO2 SLP111 T02220200
$





000
SAUS44 KSHV 141257
MTRAQV
METAR KAQV 141256Z AUTO VRB04KT 6SM BR OVC007 22/20 A2980 RMK AO2
CIG 005V012 SLP090 T02170200





000
SAUS44 KSHV 141256
MTRPOE
METAR KPOE 141255Z AUTO 18005KT 8SM OVC011 21/20 A2980 RMK AO2
SLP093 T02110200





000
SAUS44 KSHV 141234
MTRBKB
SPECI KBKB 141233Z AUTO VRB03KT 4SM BR SCT006 OVC029 22/20 A2977 RMK
AO2 T02220200





000
SAUS44 KSHV 141225
MTRPOE
SPECI KPOE 141223Z AUTO 18006KT 8SM FEW008 BKN014 OVC030 21/20 A2979
RMK AO2





000
SAUS44 KSHV 141210
MTRAQV
SPECI KAQV 141209Z AUTO 18005KT 4SM BR BKN008 OVC022 21/20 A2975 RMK
AO2 T02110200





000
SAUS44 KSHV 141157
MTRAQV
METAR KAQV 141156Z AUTO VRB05KT 4SM BR SCT008 OVC024 21/20 A2975 RMK
AO2 SLP070 60009 70126 T02110200 10222 20211 53004





000
SAUS44 KSHV 141156
MTRPOE
METAR KPOE 141155Z AUTO 18005KT 8SM BKN012 OVC030 21/20 A2978 RMK
AO2 SLP085 60002 70050 T02060200 10222 20206 53006





000
SAUS44 KSHV 141155
MTRBKB
METAR KBKB 141154Z AUTO VRB03KT 6SM BR BKN005 OVC010 22/20 A2976 RMK
AO2 CIG 004V008 SLP102 60002 70051 T02220200 10228 20222 53004





000
SAUS44 KSHV 141152
MTRPOE
SPECI KPOE 141151Z AUTO 18007KT 8SM BKN014 OVC030 21/20 A2978 RMK
AO2





000
SAUS44 KSHV 141146
MTRAQV
SPECI KAQV 141144Z AUTO 19007KT 6SM BR SCT008 BKN027 21/20 A2974 RMK
AO2 T02110200





000
SAUS44 KSHV 141135
MTRAQV
SPECI KAQV 141134Z AUTO 19006KT 6SM BR SCT009 BKN031 21/20 A2974 RMK
AO2 T02110200





000
SAUS44 KSHV 141131
MTRBKB
SPECI KBKB 141130Z AUTO 00000KT 4SM BR BKN005 OVC019 22/20 A2974 RMK
AO2 T02220200





000
SAUS44 KSHV 141123
MTRAQV
SPECI KAQV 141122Z AUTO VRB05KT 7SM SCT009 BKN029 OVC035 22/20 A2974
RMK AO2 T02170200





000
SAUS44 KSHV 141119
MTRAQV
SPECI KAQV 141118Z AUTO 18007KT 6SM BR SCT010 OVC032 22/20 A2974 RMK
AO2 T02170200





000
SAUS44 KSHV 141117
MTRBKB
SPECI KBKB 141116Z AUTO VRB03KT 4SM BR BKN004 BKN019 OVC034 22/20
A2973 RMK AO2 T02220200





000
SAUS44 KSHV 141106
MTRAQV
SPECI KAQV 141105Z AUTO 19005KT 7SM FEW007 BKN010 OVC032 22/21 A2973
RMK AO2 T02170206





000
SAUS44 KSHV 141057
MTRAQV
METAR KAQV 141056Z AUTO 19007KT 150V240 7SM BKN008 BKN013 OVC028
22/21 A2973 RMK AO2 CIG 006V010 SLP064 T02170206





000
SAUS44 KSHV 141056
MTRPOE
METAR KPOE 141055Z AUTO 18006KT 8SM OVC033 21/21 A2976 RMK AO2
SLP077 T02110206





000
SAUS44 KSHV 141055
MTRBKB
METAR KBKB 141054Z AUTO VRB03KT 4SM BR FEW005 OVC033 22/21 A2974 RMK
AO2 RAB0956E04 SLP095 P0000 T02220206





000
SAUS44 KSHV 141043
MTRBKB
SPECI KBKB 141042Z AUTO VRB03KT 4SM BR FEW005 BKN031 OVC038 22/21
A2974 RMK AO2 RAB0956E04 P0000 T02220206





000
SAUS44 KSHV 141042
MTRPOE
SPECI KPOE 141041Z AUTO 18007KT 8SM FEW015 SCT027 OVC033 21/21 A2976
RMK AO2





000
SAUS44 KSHV 141015
MTRBKB
SPECI KBKB 141013Z AUTO VRB04KT 4SM BR SCT007 BKN019 OVC033 22/21
A2974 RMK AO2 RAB0956E04 P0000 T02220206





000
SAUS44 KSHV 140957
MTRAQV
METAR KAQV 140956Z AUTO 18005KT 6SM BR BKN008 OVC012 22/21 A2973 RMK
AO2 CIG 005V009 SLP063 T02170211





000
SAUS44 KSHV 140956
MTRPOE
METAR KPOE 140955Z AUTO 19007KT 7SM SCT010 BKN016 OVC022 21/21 A2976
RMK AO2 RAE53 SLP078 P0001 T02110206





000
SAUS44 KSHV 140955
MTRBKB
METAR KBKB 140954Z AUTO VRB03KT 3SM BR BKN007 BKN021 OVC032 22/21
A2974 RMK AO2 RAE44 CIG 004V011 SLP096 P0001 T02220206





000
SAUS44 KSHV 140858
MTRPOE
METAR KPOE 140855Z AUTO 19007KT 4SM -RA BR BKN008 OVC012 22/21 A2976
RMK AO2 RAB06 CIG 005V011 SLP079 P0001 60001 T02170211 58001





000
SAUS44 KSHV 140858
MTRAQV
METAR KAQV 140856Z AUTO VRB05KT 6SM BR OVC006 22/21 A2974 RMK AO2
RAE37 CIG 004V009 SLP066 P0005 60009 T02220211 58005





000
SAUS44 KSHV 140855
MTRBKB
METAR KBKB 140854Z AUTO VRB04KT 3SM -RA BR BKN007 OVC012 23/21 A2974
RMK AO2 RAB38 CIG 005V010 SLP098 P0001 60001 T02280206 58002





000
SAUS44 KSHV 140840
MTRAQV
SPECI KAQV 140839Z AUTO 18005KT 4SM BR BKN007 OVC010 22/21 A2973 RMK
AO2 RAE37 CIG 003V009 P0005 T02220211





000
SAUS44 KSHV 140819
MTRAQV
SPECI KAQV 140817Z AUTO VRB06KT 2 1/2SM -RA BR OVC005 22/21 A2975
RMK AO2 P0001 T02220211





000
SAUS44 KSHV 140809
MTRAQV
SPECI KAQV 140807Z AUTO 20004KT 3SM -RA BR OVC005 22/21 A2975 RMK
AO2 CIG 004V008 P0000 T02220211





000
SAUS44 KSHV 140757
MTRAQV
METAR KAQV 140756Z AUTO VRB05KT 2 1/2SM -RA BR OVC005 22/21 A2974
RMK AO2 CIG 004V009 SLP069 P0003 T02220211





000
SAUS44 KSHV 140756
MTRPOE
METAR KPOE 140755Z AUTO 20005KT 6SM BR BKN008 OVC012 22/21 A2976 RMK
AO2 CIG 006V010 SLP079 T02170211





000
SAUS44 KSHV 140755
MTRBKB
METAR KBKB 140754Z AUTO VRB06KT 4SM BR BKN008 OVC012 23/21 A2975 RMK
AO2 RAB50E54 CIG 005V011 SLP099 P0000 T02280206





000
SAUS44 KSHV 140741
MTRAQV
SPECI KAQV 140740Z AUTO 20005KT 2SM -RA BR OVC005 22/21 A2975 RMK
AO2 CIG 004V009 P0002 T02220211





000
SAUS44 KSHV 140730
MTRAQV
SPECI KAQV 140728Z AUTO 19007KT 140V210 3SM -RA BR OVC005 22/21
A2974 RMK AO2 CIG 004V010 P0001 T02220211





000
SAUS44 KSHV 140723
MTRPOE
SPECI KPOE 140722Z AUTO 19010G19KT 6SM BR OVC010 22/21 A2976 RMK AO2
CIG 007V012





000
SAUS44 KSHV 140715
MTRAQV
SPECI KAQV 140714Z AUTO VRB04KT 2 1/2SM -RA BR OVC005 22/21 A2975
RMK AO2 CIG 004V008 P0001 T02220211





000
SAUS44 KSHV 140704
MTRAQV
SPECI KAQV 140703Z AUTO 20006KT 3SM -RA BR OVC005 22/21 A2975 RMK
AO2 CIG 004V009 P0000 T02220211





000
SAUS44 KSHV 140657
MTRAQV
METAR KAQV 140656Z AUTO 20006KT 2 1/2SM -RA BR OVC005 22/21 A2975
RMK AO2 RAB33 CIG 004V009 SLP072 P0001 T02220211





000
SAUS44 KSHV 140656
MTRPOE
METAR KPOE 140655Z AUTO 19012G17KT 6SM BR OVC008 22/21 A2977 RMK AO2
RAE05 CIG 006V010 SLP080 P0000 T02220211





000
SAUS44 KSHV 140655
MTRPOE
SPECI KPOE 140653Z AUTO 18011G16KT 6SM BR OVC008 22/21 A2977 RMK AO2
RAE05 CIG 006V010 P0000





000
SAUS44 KSHV 140655
MTRBKB
METAR KBKB 140654Z AUTO 19008KT 5SM BR OVC006 23/21 A2975 RMK AO2
RAB26E37 CIG 004V008 SLP101 P0000 T02280206





000
SAUS44 KSHV 140557
MTRAQV
METAR KAQV 140556Z AUTO VRB06KT 4SM BR OVC005 22/21 A2975 RMK AO2
RAE53 CIG 004V009 SLP072 P0000 60117 T02220211 10228 20194 402560194
50001





000
SAUS44 KSHV 140556
MTRPOE
METAR KPOE 140555Z AUTO 18010KT 4SM -RA BR OVC006 22/21 A2977 RMK
AO2 RAE15B37 CIG 004V009 SLP080 P0000 60037 T02170211 10217 20206
50002





000
SAUS44 KSHV 140555
MTRBKB
METAR KBKB 140554Z AUTO VRB05KT 5SM BR OVC005 23/21 A2975 RMK AO2
RAE44 SLP100 P0002 60046 T02280206 10228 20211 402610206 58003





000
SAUS44 KSHV 140457
MTRAQV
METAR KAQV 140456Z AUTO 18005KT 6SM -RA BR OVC005 22/21 A2976 RMK
AO2 RAE35B55 SLP074 P0001 T02170211





000
SAUS44 KSHV 140456
MTRBKB
METAR KBKB 140454Z AUTO VRB04KT 3SM -RA BR BKN005 OVC009 22/21 A2976
RMK AO2 CIG 003V007 SLP105 P0009 T02220206





000
SAUS44 KSHV 140456
MTRPOE
METAR KPOE 140455Z AUTO 18010KT 4SM -RA BR OVC006 22/21 A2978 RMK
AO2 CIG 004V008 SLP086 P0005 T02170211 402500189





000
SAUS44 KSHV 140432
MTRBKB
SPECI KBKB 140430Z AUTO VRB04KT 3SM -RA BR OVC006 23/21 A2978 RMK
AO2 CIG 004V011 P0007 T02280206





000
SAUS44 KSHV 140405
MTRBKB
SPECI KBKB 140402Z AUTO VRB03KT 2 1/2SM -RA BR OVC006 23/21 A2978
RMK AO2 CIG 004V009 P0002 T02280206





000
SAUS44 KSHV 140358
MTRAQV
METAR KAQV 140356Z AUTO VRB04KT 4SM -RA BR OVC007 22/21 A2977 RMK
AO2 CIG 004V011 SLP078 P0005 T02170211





000
SAUS44 KSHV 140356
MTRPOE
METAR KPOE 140355Z AUTO 18011KT 4SM -RA BR OVC006 22/21 A2980 RMK
AO2 CIG 004V011 SLP090 P0002 T02170211





000
SAUS44 KSHV 140355
MTRBKB
METAR KBKB 140354Z AUTO 18005KT 3SM -RA BR OVC006 23/21 A2978 RMK
AO2 CIG 004V009 SLP109 P0004 T02280206





000
SAUS44 KSHV 140347
MTRAQV
SPECI KAQV 140346Z AUTO VRB06KT 4SM -RA BR OVC006 22/21 A2977 RMK
AO2 CIG 004V009 P0004 T02170211





000
SAUS44 KSHV 140329
MTRAQV
SPECI KAQV 140328Z AUTO 18006KT 2 1/2SM RA BR OVC006 22/21 A2977 RMK
AO2 CIG 004V010 P0002 T02170206





000
SAUS44 KSHV 140313
MTRBKB
SPECI KBKB 140311Z AUTO VRB05KT 5SM -RA BR OVC005 22/21 A2976 RMK
AO2 P0001 T02220206





000
SAUS44 KSHV 140258
MTRAQV
METAR KAQV 140256Z AUTO VRB06KT 3SM -RA BR OVC004 21/21 A2975 RMK
AO2 RAB20 SLP071 P0001 60111 T02110206 58014





000
SAUS44 KSHV 140256
MTRPOE
METAR KPOE 140255Z 17015KT 4SM -RA BR OVC006 22/21 A2976 RMK AO2
RAB41 SLP079 P0001 60030 T02170206 58011





000
SAUS44 KSHV 140255
MTRBKB
METAR KBKB 140254Z AUTO VRB04KT 3SM -RA BR OVC004 22/21 A2976 RMK
AO2 CIG 003V008 SLP104 P0002 60031 T02220206 56011





000
SAUS44 KSHV 140227
MTRBKB
SPECI KBKB 140225Z AUTO VRB04KT 4SM -RA BR OVC004 22/20 A2977 RMK
AO2 P0001 T02220200





000
SAUS44 KSHV 140226
MTRAQV
SPECI KAQV 140224Z AUTO 16006KT 3SM -RA BR OVC004 21/20 A2976 RMK
AO2 RAB20 P0000 T02060200





000
SAUS44 KSHV 140159 COR
MTRBKB
METAR KBKB 140154Z AUTO VRB06KT 6SM -RA BR OVC006 22/20 A2977 RMK
AO2 TSE00 CIG 003V009 SLP105 P0002 T02170200





000
SAUS44 KSHV 140158
MTRAQV
METAR KAQV 140156Z AUTO VRB03KT 6SM BR BKN006 OVC015 20/19 A2977 RMK
AO2 RAE50 TSE23 CIG 004V011 PRESRR SLP079 P0092 T02000189





000
SAUS44 KSHV 140156
MTRBKB
METAR KBKB 140154Z AUTO VRB06KT 6SM -RA BR OVC006 22/20 A2977 RMK
AO2 TSE00 CIG 003V009 SLP105 P0002 T02170200





000
SAUS44 KSHV 140156
MTRPOE
METAR KPOE 140155Z 16015G21KT 7SM OVC006 21/21 A2977 RMK AO2 RAE19
SLP081 P0000 T02110206





000
SAUS44 KSHV 140154
MTRAQV
SPECI KAQV 140152Z AUTO VRB04KT 7SM BKN009 BKN017 OVC026 20/19 A2977
RMK AO2 RAE50 TSE23 CIG 007V012 P0092





000
SAUS44 KSHV 140137
MTRAQV
SPECI KAQV 140135Z AUTO 13007KT 100V160 5SM -RA BR FEW009 BKN018
OVC036 20/19 A2975 RMK AO2 TSE23 P0092 T02000189





000
SAUS44 KSHV 140126
MTRAQV
SPECI KAQV 140125Z AUTO VRB05KT 4SM VCTS -RA BR FEW008 BKN018 OVC039
20/19 A2976 RMK AO2 TSE23 P0091 T02000189





000
SAUS44 KSHV 140124
MTRAQV
SPECI KAQV 140123Z AUTO VRB04KT 2 1/2SM VCTS -RA BR FEW010 BKN018
OVC050 19/19 A2976 RMK AO2 TSE23 P0091 T01940189





000
SAUS44 KSHV 140123
MTRBKB
SPECI KBKB 140122Z AUTO VRB03KT 8SM -RA BKN008 OVC015 22/19 A2978
RMK AO2 TSE00 CIG 005V011 P0001 T02170194





000
SAUS44 KSHV 140119
MTRAQV
SPECI KAQV 140118Z AUTO 16006KT 1SM +TSRA BR FEW009 BKN018 OVC048
19/19 A2976 RMK AO2 PRESFR P0091 T01940189





000
SAUS44 KSHV 140111
MTRPOE
SPECI KPOE 140110Z 17006KT 9SM -RA OVC006 21/21 A2979 RMK AO2 CIG
004V010 P0000





000
SAUS44 KSHV 140106
MTRBKB
SPECI KBKB 140105Z AUTO VRB04KT 7SM -RA FEW006 BKN014 OVC025 22/19
A2978 RMK AO2 TSE00 P0000 T02170194





000
SAUS44 KSHV 140104
MTRAQV
SPECI KAQV 140103Z AUTO 19006KT 3/4SM +TSRA BR FEW010 BKN029 OVC090
20/19 A2979 RMK AO2 P0035 T02000189





000
SAUS44 KSHV 140101
MTRBKB
SPECI KBKB 140100Z AUTO VRB05KT 4SM VCTS -RA BR BKN014 BKN021 OVC028
21/19 A2978 RMK AO2 TSE00 P0000 T02110194





000
SAUS44 KSHV 140057
MTRAQV
METAR KAQV 140056Z AUTO 18008KT 2 1/2SM TSRA BR FEW013 BKN065 OVC090
21/19 A2981 RMK AO2 RAB2358 TSB27 PRESRR SLP093 P0018 T02060194





000
SAUS44 KSHV 140056
MTRBKB
METAR KBKB 140054Z AUTO VRB06KT 3SM TSRA BR FEW009 BKN017 OVC045
21/19 A2978 RMK AO2 SLP110 P0027 T02110194





000
SAUS44 KSHV 140056
MTRPOE
METAR KPOE 140055Z 16006KT 5SM -RA BR BKN008 OVC014 21/20 A2980 RMK
AO2 TSE41 CIG 004V010 SLP092 P0029 T02060200





000
SAUS44 KSHV 140053
MTRAQV
SPECI KAQV 140052Z AUTO VRB04KT 2 1/2SM TSRA BR FEW023 BKN065 OVC100
21/19 A2979 RMK AO2 RAB2358 TSB27 P0015





000
SAUS44 KSHV 140051
MTRBKB
SPECI KBKB 140050Z AUTO 19008KT 130V230 3SM TSRA BR FEW009 BKN026
OVC046 21/19 A2978 RMK AO2 PRESRR P0026





000
SAUS44 KSHV 140043
MTRPOE
SPECI KPOE 140041Z 19007KT 3SM +RA BR BKN008 BKN014 OVC032 21/20
A2981 RMK AO2 TSE41 CIG 006V010 P0024





000
SAUS44 KSHV 140040
MTRBKB
SPECI KBKB 140039Z AUTO 14009G20KT 110V180 2 1/2SM +TSRA BR FEW014
BKN026 OVC075 21/19 A2976 RMK AO2 VIS 1 3/4V4 P0021 T02110189





000
SAUS44 KSHV 140039
MTRPOE
SPECI KPOE 140038Z 21008KT 180V240 2SM TSRA BR BKN008 BKN016 OVC037
21/20 A2981 RMK AO2 VIS 1V4 CIG 006V010 P0023





000
SAUS44 KSHV 140034
MTRAQV
SPECI KAQV 140033Z AUTO VRB06KT 5SM TSRA BR FEW023 BKN070 OVC120
21/20 A2978 RMK AO2 RAB2358 TSB27 P0008 T02110200





000
SAUS44 KSHV 140031
MTRPOE
SPECI KPOE 140030Z VRB04G16KT 1 3/4SM +TSRA BR SCT008 BKN016 OVC060
21/19 A2980 RMK AO2 P0018





000
SAUS44 KSHV 140030
MTRPOE
SPECI KPOE 140028Z 30009G16KT 2SM +TSRA BR BKN010 BKN029 OVC070
21/20 A2980 RMK AO2 VIS 1 1/4V5 P0015





000
SAUS44 KSHV 140026
MTRPOE
SPECI KPOE 140025Z 26011G16KT 4SM TSRA BR SCT008 BKN025 OVC075 21/20
A2981 RMK AO2 PRESRR P0009





000
SAUS44 KSHV 132357
MTRPOE
METAR KPOE 132355Z 12008KT 3SM +TSRA BR FEW029 BKN060 OVC090 21/19
A2979 RMK AO2 TSB09E26B31RAB33 SLP090 P0011 60011 T02110194 10250
20211 58021





000
SAUS44 KSHV 132357
MTRAQV
METAR KAQV 132356Z AUTO 17005G15KT 10SM FEW070 SCT085 BKN110 23/19
A2978 RMK AO2 SLP080 T02280189 10256 20228 58024





000
SAUS44 KSHV 132355
MTRBKB
METAR KBKB 132354Z AUTO VRB03KT 7SM -TSRA FEW080 SCT095 BKN110 23/19
A2979 RMK AO2 RAB40 TSB49 SLP114 P0001 60003 T02280189 10261 20222
58015





000
SAUS44 KSHV 132332
MTRPOE
SPECI KPOE 132331Z 14008KT 10SM TS FEW055 BKN085 BKN110 23/18 A2980
RMK AO2 TSB09E26B31





000
SAUS44 KSHV 132316
MTRPOE
SPECI KPOE 132315Z AUTO 14009KT 10SM TS BKN055 BKN110 23/18 A2980
RMK AO2 TSB09 PRESFR





000
SAUS44 KSHV 132257
MTRAQV
METAR KAQV 132256Z AUTO 17007G16KT 140V210 10SM FEW037 BKN055 BKN075
24/18 A2982 RMK AO2 SLP095 T02390178





000
SAUS44 KSHV 132256
MTRPOE
METAR KPOE 132255Z AUTO 16010KT 10SM FEW050 OVC060 23/18 A2983 RMK
AO2 RAB08E18 SLP102 P0000 T02330178





000
SAUS44 KSHV 132255
MTRBKB
METAR KBKB 132254Z AUTO 00000KT 10SM SCT030 BKN039 OVC065 23/19
A2983 RMK AO2 RAB10E45 SLP129 P0002 T02280194





000
SAUS44 KSHV 132157
MTRAQV
METAR KAQV 132156Z AUTO 17009G17KT 10SM FEW034 BKN050 OVC060 24/17
A2983 RMK AO2 SLP097 T02440172





000
SAUS44 KSHV 132156
MTRPOE
METAR KPOE 132155Z AUTO 18013G18KT 10SM BKN060 BKN070 OVC095 24/17
A2984 RMK AO2 SLP107 T02390172





000
SAUS44 KSHV 132155
MTRBKB
METAR KBKB 132154Z AUTO 15007KT 120V180 10SM FEW034 SCT055 BKN070
26/18 A2982 RMK AO2 SLP122 T02560178





000
SAUS44 KSHV 132058
MTRAQV
METAR KAQV 132056Z AUTO VRB05G14KT 10SM FEW040 OVC050 24/17 A2985
RMK AO2 SLP104 T02440172 55016





000
SAUS44 KSHV 132056
MTRPOE
METAR KPOE 132055Z AUTO 17009G19KT 10SM FEW032 SCT041 OVC050 24/17
A2986 RMK AO2 SLP112 T02440172 56019





000
SAUS44 KSHV 132055
MTRBKB
METAR KBKB 132054Z AUTO 18007KT 130V220 10SM BKN033 OVC055 26/17
A2984 RMK AO2 SLP130 T02560172 58018





000
SAUS44 KSHV 131958
MTRAQV
METAR KAQV 131956Z AUTO 19009G18KT 160V250 10SM FEW028 BKN045 25/18
A2985 RMK AO2 SLP104 T02500183





000
SAUS44 KSHV 131956
MTRPOE
METAR KPOE 131955Z AUTO 18012G24KT 10SM FEW030 BKN046 BKN055 24/18
A2986 RMK AO2 SLP112 T02440178





000
SAUS44 KSHV 131955
MTRBKB
METAR KBKB 131954Z AUTO VRB05G21KT 10SM FEW030 BKN047 BKN060 26/18
A2985 RMK AO2 SLP132 T02610183





000
SAUS44 KSHV 131907
MTRBKB
SPECI KBKB 131906Z AUTO VRB05KT 10SM SCT026 BKN039 26/18 A2988 RMK
AO2 T02560183





000
SAUS44 KSHV 131857
MTRAQV
METAR KAQV 131856Z AUTO 19007G15KT 150V230 10SM FEW030 BKN038 OVC045
24/18 A2988 RMK AO2 SLP116 T02440183





000
SAUS44 KSHV 131856
MTRBKB
METAR KBKB 131854Z AUTO VRB06KT 10SM BKN026 BKN031 OVC039 25/19
A2989 RMK AO2 SLP148 T02500189





000
SAUS44 KSHV 131856
MTRPOE
METAR KPOE 131855Z AUTO 16013G18KT 10SM SCT026 BKN033 BKN065 24/18
A2990 RMK AO2 SLP127 T02440183





000
SAUS44 KSHV 131844
MTRBKB
SPECI KBKB 131843Z AUTO VRB04KT 10SM BKN028 BKN034 OVC065 26/18
A2989 RMK AO2 T02560183





000
SAUS44 KSHV 131824
MTRAQV
SPECI KAQV 131823Z AUTO VRB06KT 10SM OVC033 24/18 A2990 RMK AO2
T02390183





000
SAUS44 KSHV 131758
MTRAQV
METAR KAQV 131756Z AUTO 18009G16KT 160V240 10SM BKN029 BKN038 OVC085
24/18 A2990 RMK AO2 SLP121 60000 T02440183 10244 20194 58016





000
SAUS44 KSHV 131756
MTRPOE
METAR KPOE 131755Z AUTO 17008G17KT 10SM OVC032 24/18 A2992 RMK AO2
SLP131 T02390178 10244 20194 56013





000
SAUS44 KSHV 131755
MTRBKB
METAR KBKB 131754Z AUTO VRB05KT 10SM SCT028 BKN033 OVC043 26/18
A2989 RMK AO2 SLP148 T02560183 10261 20206 58016





000
SAUS44 KSHV 131747
MTRAQV
SPECI KAQV 131746Z AUTO 18009KT 10SM BKN030 BKN042 OVC090 24/18
A2990 RMK AO2 T02440183





000
SAUS44 KSHV 131727
MTRPOE
SPECI KPOE 131726Z AUTO 18012G22KT 10SM SCT030 BKN034 OVC042 24/17
A2992 RMK AO2





000
SAUS44 KSHV 131718
MTRBKB
SPECI KBKB 131717Z AUTO 18007KT 130V250 10SM SCT026 OVC037 25/18
A2990 RMK AO2 T02500178





000
SAUS44 KSHV 131708
MTRPOE
SPECI KPOE 131707Z AUTO 17008G16KT 10SM BKN028 BKN037 24/18 A2992
RMK AO2





000
SAUS44 KSHV 131704
MTRAQV
SPECI KAQV 131703Z AUTO VRB06KT 10SM SCT021 BKN026 OVC038 24/19
A2991 RMK AO2 T02390189





000
SAUS44 KSHV 131657
MTRPOE
METAR KPOE 131655Z AUTO 16010KT 10SM SCT027 BKN031 OVC038 23/18
A2993 RMK AO2 SLP136 T02330183





000
SAUS44 KSHV 131657
MTRAQV
METAR KAQV 131656Z AUTO VRB04KT 10SM SCT020 BKN031 OVC038 24/19
A2991 RMK AO2 SLP127 T02390189





000
SAUS44 KSHV 131655
MTRBKB
METAR KBKB 131654Z AUTO VRB04KT 10SM BKN026 OVC033 25/18 A2991 RMK
AO2 SLP155 T02500183





000
SAUS44 KSHV 131650
MTRAQV
SPECI KAQV 131648Z AUTO 18007G14KT 150V220 10SM FEW020 SCT025 OVC035
24/19 A2992 RMK AO2 T02390189





    US Dept of Commerce
    National Oceanic and Atmospheric Administration
    National Weather Service
    1325 East West Highway
    Silver Spring, MD 20910
    Page Author: NWS Internet Services Team
Disclaimer
Information Quality
Credits
Glossary
Privacy Policy
Freedom of Information Act (FOIA)
About Us
Career Opportunities